Time;durP1;ratioP1;P1;durP2;ratioP2;P2;SDS_P1;SDS_P2;PMS_P1;PMS_P2;Temp;Humidity;BMP_temperature;BMP_pressure;BME280_temperature;BME280_humidity;BME280_pressure;Samples;Min_cycle;Max_cycle;Signal;HPM_P1;HPM_P2
2020/12/26 00:01:15;;;;;;;17.88;12.05;;;;;;;;;;4989334;28;20113;-77
2020/12/26 00:03:41;;;;;;;21.50;13.70;;;;;;;;;;4990476;28;20022;-77
2020/12/26 00:06:07;;;;;;;23.63;13.35;;;;;;;;;;4990617;28;20100;-78
2020/12/26 00:08:34;;;;;;;28.60;16.10;;;;;;;;;;4991220;28;20118;-77
2020/12/26 00:11:00;;;;;;;34.67;17.75;;;;;;;;;;4991489;28;20023;-78
2020/12/26 00:13:26;;;;;;;29.55;15.88;;;;;;;;;;4990995;28;20046;-78
2020/12/26 00:15:52;;;;;;;24.88;13.63;;;;;;;;;;4990499;28;20042;-77
2020/12/26 00:18:18;;;;;;;22.15;13.10;;;;;;;;;;4989739;28;20125;-79
2020/12/26 00:20:44;;;;;;;25.88;14.10;;;;;;;;;;4993934;28;20758;-80
2020/12/26 00:23:10;;;;;;;21.63;13.13;;;;;;;;;;4994252;28;20022;-81
2020/12/26 00:25:36;;;;;;;26.15;13.57;;;;;;;;;;4988762;28;20025;-79
2020/12/26 00:28:05;;;;;;;26.65;13.73;;;;;;;;;;4990568;28;20540;-80
2020/12/26 00:30:31;;;;;;;22.77;13.65;;;;;;;;;;4990303;28;20548;-80
2020/12/26 00:32:57;;;;;;;23.45;13.82;;;;;;;;;;4990247;28;20054;-80
2020/12/26 00:35:23;;;;;;;24.30;13.98;;;;;;;;;;4990667;28;20030;-80
2020/12/26 00:37:49;;;;;;;24.73;15.25;;;;;;;;;;4989651;28;20050;-79
2020/12/26 00:40:15;;;;;;;24.45;14.88;;;;;;;;;;4990327;28;20577;-81
2020/12/26 00:42:40;;;;;;;29.10;15.40;;;;;;;;;;4990069;28;20022;-80
2020/12/26 00:45:06;;;;;;;27.38;15.05;;;;;;;;;;4990569;28;20023;-79
2020/12/26 00:47:32;;;;;;;28.83;15.38;;;;;;;;;;4990441;28;20440;-80
2020/12/26 00:49:58;;;;;;;22.55;14.65;;;;;;;;;;4991201;28;20034;-79
2020/12/26 00:52:24;;;;;;;24.52;14.70;;;;;;;;;;4991154;28;20469;-80
2020/12/26 00:54:50;;;;;;;28.65;15.52;;;;;;;;;;4992001;28;20481;-80
2020/12/26 00:57:16;;;;;;;25.63;15.02;;;;;;;;;;4991248;28;20042;-79
2020/12/26 00:59:42;;;;;;;20.73;13.40;;;;;;;;;;4990676;28;20018;-79
2020/12/26 01:02:08;;;;;;;20.58;13.05;;;;;;;;;;4990716;28;20030;-80
2020/12/26 01:04:34;;;;;;;24.95;14.15;;;;;;;;;;4989929;28;20035;-79
2020/12/26 01:07:00;;;;;;;25.08;14.65;;;;;;;;;;4991144;28;20030;-79
2020/12/26 01:09:26;;;;;;;26.08;14.70;;;;;;;;;;4991337;28;20023;-80
2020/12/26 01:11:52;;;;;;;20.38;13.25;;;;;;;;;;4990286;28;20053;-78
2020/12/26 01:14:19;;;;;;;20.77;12.88;;;;;;;;;;4988985;28;20030;-79
2020/12/26 01:16:52;;;;;;;22.02;13.65;;;;;;;;;;4991360;28;20035;-79
2020/12/26 01:19:18;;;;;;;21.30;13.20;;;;;;;;;;4990511;28;20024;-79
2020/12/26 01:21:49;;;;;;;24.92;13.45;;;;;;;;;;4988156;28;20250;-79
2020/12/26 01:24:15;;;;;;;22.13;13.20;;;;;;;;;;4987169;28;20057;-79
2020/12/26 01:26:41;;;;;;;22.30;13.93;;;;;;;;;;4986845;28;20578;-79
2020/12/26 01:29:07;;;;;;;23.13;13.23;;;;;;;;;;4987721;28;20038;-79
2020/12/26 01:31:33;;;;;;;23.25;13.68;;;;;;;;;;4986093;28;20100;-80
2020/12/26 01:33:59;;;;;;;21.13;13.55;;;;;;;;;;4987612;28;20555;-80
2020/12/26 01:36:25;;;;;;;25.77;14.45;;;;;;;;;;4989326;28;20046;-80
2020/12/26 01:38:52;;;;;;;24.15;13.82;;;;;;;;;;4989116;28;20029;-79
2020/12/26 01:41:19;;;;;;;22.17;13.60;;;;;;;;;;4988716;28;20498;-79
2020/12/26 01:43:57;;;;;;;23.98;13.90;;;;;;;;;;4992997;28;20027;-78
2020/12/26 01:46:27;;;;;;;23.02;14.63;;;;;;;;;;4991629;28;20178;-80
2020/12/26 01:48:54;;;;;;;27.30;14.75;;;;;;;;;;4991869;28;20022;-78
2020/12/26 01:51:20;;;;;;;25.50;14.05;;;;;;;;;;4993406;28;20027;-80
2020/12/26 01:53:48;;;;;;;24.55;14.07;;;;;;;;;;4993679;28;20027;-79
2020/12/26 01:56:14;;;;;;;;;;;;;;;;;;4993107;28;20106;-80
2020/12/26 01:58:42;;;;;;;25.88;13.80;;;;;;;;;;4993119;28;20348;-79
2020/12/26 02:01:08;;;;;;;26.40;14.43;;;;;;;;;;4991577;28;20022;-78
2020/12/26 02:03:34;;;;;;;27.30;14.25;;;;;;;;;;4992536;28;20034;-78
2020/12/26 02:06:00;;;;;;;21.15;13.50;;;;;;;;;;4992608;28;20101;-79
2020/12/26 02:08:26;;;;;;;23.33;14.05;;;;;;;;;;4991530;28;20037;-78
2020/12/26 02:10:52;;;;;;;36.67;20.63;;;;;;;;;;4991072;28;20026;-79
2020/12/26 02:13:18;;;;;;;25.17;14.70;;;;;;;;;;4991346;28;20045;-79
2020/12/26 02:15:44;;;;;;;23.15;13.15;;;;;;;;;;4991966;28;20022;-79
2020/12/26 02:18:10;;;;;;;23.73;13.57;;;;;;;;;;4992333;28;20113;-79
2020/12/26 02:20:36;;;;;;;20.92;12.50;;;;;;;;;;4992438;28;20493;-80
2020/12/26 02:23:04;;;;;;;20.52;12.90;;;;;;;;;;4992100;28;20019;-79
2020/12/26 02:25:30;;;;;;;22.70;13.18;;;;;;;;;;4990707;28;20054;-80
2020/12/26 02:27:56;;;;;;;24.27;13.93;;;;;;;;;;4991895;28;20027;-79
2020/12/26 02:30:22;;;;;;;21.15;12.60;;;;;;;;;;4992105;28;20528;-79
2020/12/26 02:32:57;;;;;;;19.77;12.50;;;;;;;;;;4990728;28;20027;-79
2020/12/26 02:35:23;;;;;;;22.70;11.93;;;;;;;;;;4989718;28;20030;-80
2020/12/26 02:37:49;;;;;;;19.35;12.02;;;;;;;;;;4991703;28;20030;-79
2020/12/26 02:40:15;;;;;;;19.45;11.70;;;;;;;;;;4990684;28;20049;-78
2020/12/26 02:42:41;;;;;;;19.02;11.10;;;;;;;;;;4990455;28;20023;-80
2020/12/26 02:45:07;;;;;;;22.05;12.30;;;;;;;;;;4991763;28;20041;-79
2020/12/26 02:47:33;;;;;;;25.00;14.00;;;;;;;;;;4991636;28;20022;-78
2020/12/26 02:49:59;;;;;;;25.30;13.18;;;;;;;;;;4992043;28;20030;-78
2020/12/26 02:52:25;;;;;;;26.60;14.38;;;;;;;;;;4991886;28;20023;-79
2020/12/26 02:54:51;;;;;;;24.85;14.13;;;;;;;;;;4990820;28;20138;-78
2020/12/26 02:57:17;;;;;;;24.65;13.90;;;;;;;;;;4990485;28;20022;-79
2020/12/26 02:59:43;;;;;;;24.73;13.20;;;;;;;;;;4991145;28;20474;-78
2020/12/26 03:02:09;;;;;;;20.88;12.13;;;;;;;;;;4991703;28;20036;-78
2020/12/26 03:04:35;;;;;;;24.00;13.23;;;;;;;;;;4992419;28;20023;-79
2020/12/26 03:07:01;;;;;;;20.60;12.05;;;;;;;;;;4991965;28;20033;-79
2020/12/26 03:09:27;;;;;;;23.25;12.30;;;;;;;;;;4993125;28;20080;-79
2020/12/26 03:11:53;;;;;;;23.95;12.10;;;;;;;;;;4991603;28;20508;-79
2020/12/26 03:14:19;;;;;;;18.05;11.25;;;;;;;;;;4992921;28;20030;-78
2020/12/26 03:16:45;;;;;;;24.42;12.13;;;;;;;;;;4991474;28;20268;-79
2020/12/26 03:19:11;;;;;;;21.80;11.65;;;;;;;;;;4991708;28;20022;-79
2020/12/26 03:21:37;;;;;;;19.65;10.68;;;;;;;;;;4991496;28;20109;-79
2020/12/26 03:24:03;;;;;;;17.00;10.30;;;;;;;;;;4992800;28;20134;-80
2020/12/26 03:26:29;;;;;;;19.63;11.10;;;;;;;;;;4991661;28;20029;-78
2020/12/26 03:28:55;;;;;;;18.08;11.35;;;;;;;;;;4991380;28;20057;-81
2020/12/26 03:31:21;;;;;;;17.05;10.55;;;;;;;;;;4992679;28;20396;-79
2020/12/26 03:33:47;;;;;;;15.27;9.38;;;;;;;;;;4991384;28;20026;-80
2020/12/26 03:36:13;;;;;;;19.60;9.80;;;;;;;;;;4990855;28;20117;-80
2020/12/26 03:38:39;;;;;;;16.85;9.98;;;;;;;;;;4992396;28;20109;-78
2020/12/26 03:41:05;;;;;;;21.25;10.85;;;;;;;;;;4992773;28;20050;-79
2020/12/26 03:43:31;;;;;;;18.70;11.18;;;;;;;;;;4992869;28;20497;-79
2020/12/26 03:45:57;;;;;;;18.30;11.05;;;;;;;;;;4992655;28;20019;-79
2020/12/26 03:48:23;;;;;;;22.25;11.68;;;;;;;;;;4992819;28;20023;-78
2020/12/26 03:50:49;;;;;;;20.95;11.48;;;;;;;;;;4991250;28;20535;-79
2020/12/26 03:53:15;;;;;;;17.33;10.80;;;;;;;;;;4992450;28;20076;-80
2020/12/26 03:55:41;;;;;;;20.65;11.25;;;;;;;;;;4990708;28;20026;-79
2020/12/26 03:58:07;;;;;;;20.30;10.60;;;;;;;;;;4992168;28;20397;-80
2020/12/26 04:00:33;;;;;;;17.60;10.05;;;;;;;;;;4990588;28;20034;-79
2020/12/26 04:02:59;;;;;;;20.23;10.80;;;;;;;;;;4993777;28;20026;-79
2020/12/26 04:05:25;;;;;;;20.67;11.95;;;;;;;;;;5000063;28;20022;-79
2020/12/26 04:07:52;;;;;;;24.67;12.77;;;;;;;;;;5010382;28;20397;-79
2020/12/26 04:10:18;;;;;;;23.88;12.55;;;;;;;;;;5008996;28;20034;-79
2020/12/26 04:12:44;;;;;;;19.30;11.90;;;;;;;;;;5008105;28;20073;-79
2020/12/26 04:15:10;;;;;;;21.13;11.57;;;;;;;;;;5008807;28;20424;-79
2020/12/26 04:17:36;;;;;;;25.23;11.80;;;;;;;;;;5009666;28;20779;-78
2020/12/26 04:20:02;;;;;;;21.92;11.27;;;;;;;;;;5009855;28;20177;-79
2020/12/26 04:22:28;;;;;;;26.02;12.25;;;;;;;;;;5008366;28;20452;-80
2020/12/26 04:24:54;;;;;;;21.40;12.05;;;;;;;;;;5008453;28;20496;-80
2020/12/26 04:27:20;;;;;;;19.65;11.77;;;;;;;;;;5008156;28;20026;-80
2020/12/26 04:29:46;;;;;;;21.38;11.75;;;;;;;;;;5008268;28;20080;-78
2020/12/26 04:32:12;;;;;;;22.15;11.15;;;;;;;;;;5007537;28;20103;-79
2020/12/26 04:34:38;;;;;;;23.25;11.23;;;;;;;;;;5007670;28;20459;-80
2020/12/26 04:37:04;;;;;;;23.77;12.07;;;;;;;;;;5008136;28;20524;-79
2020/12/26 04:39:30;;;;;;;17.15;10.82;;;;;;;;;;5010314;28;20026;-80
2020/12/26 04:41:56;;;;;;;18.75;10.93;;;;;;;;;;5008620;28;20460;-80
2020/12/26 04:44:24;;;;;;;19.98;10.90;;;;;;;;;;5009648;28;20026;-79
2020/12/26 04:46:50;;;;;;;23.90;10.75;;;;;;;;;;5008099;28;20119;-79
2020/12/26 04:49:18;;;;;;;24.40;10.60;;;;;;;;;;5008401;28;20034;-80
2020/12/26 04:51:44;;;;;;;20.23;10.45;;;;;;;;;;5008354;28;20036;-80
2020/12/26 04:54:12;;;;;;;17.98;10.20;;;;;;;;;;5009408;28;20025;-80
2020/12/26 04:56:42;;;;;;;20.50;10.07;;;;;;;;;;5009656;28;20034;-80
2020/12/26 04:59:09;;;;;;;24.20;11.52;;;;;;;;;;5009181;28;20393;-80
2020/12/26 05:01:40;;;;;;;22.08;11.55;;;;;;;;;;5009753;28;20025;-80
2020/12/26 05:04:06;;;;;;;23.75;11.10;;;;;;;;;;5009472;28;20053;-80
2020/12/26 05:06:38;;;;;;;21.35;11.43;;;;;;;;;;5009645;28;20072;-80
2020/12/26 05:09:04;;;;;;;20.90;11.38;;;;;;;;;;5009668;28;20753;-81
2020/12/26 05:11:30;;;;;;;20.17;11.20;;;;;;;;;;5007945;28;20515;-79
2020/12/26 05:13:56;;;;;;;20.13;11.02;;;;;;;;;;5008159;28;20092;-80
2020/12/26 05:16:22;;;;;;;23.40;11.52;;;;;;;;;;5008620;28;20072;-80
2020/12/26 05:18:49;;;;;;;22.63;11.95;;;;;;;;;;5011675;28;20378;-79
2020/12/26 05:21:22;;;;;;;24.40;12.40;;;;;;;;;;5011754;28;20025;-80
2020/12/26 05:24:01;;;;;;;25.77;12.65;;;;;;;;;;5013447;28;20097;-81
2020/12/26 05:26:30;;;;;;;24.33;12.05;;;;;;;;;;5011116;28;20080;-80
2020/12/26 05:29:00;;;;;;;23.00;11.82;;;;;;;;;;5011218;28;20134;-80
2020/12/26 05:31:42;;;;;;;21.90;10.50;;;;;;;;;;5011729;28;20022;-80
2020/12/26 05:34:08;;;;;;;18.42;10.60;;;;;;;;;;5012438;28;20021;-80
2020/12/26 05:36:34;;;;;;;21.23;11.02;;;;;;;;;;5011802;28;20430;-79
2020/12/26 05:39:00;;;;;;;18.05;10.32;;;;;;;;;;5010537;28;20025;-80
2020/12/26 05:41:29;;;;;;;19.33;10.57;;;;;;;;;;5011913;28;20365;-80
2020/12/26 05:43:55;;;;;;;19.30;10.18;;;;;;;;;;5012402;28;20022;-80
2020/12/26 05:46:21;;;;;;;16.75;10.27;;;;;;;;;;5010275;28;20587;-80
2020/12/26 05:48:47;;;;;;;17.40;10.70;;;;;;;;;;5012167;28;20481;-79
2020/12/26 05:51:22;;;;;;;19.33;11.10;;;;;;;;;;5011277;28;20026;-79
2020/12/26 05:53:49;;;;;;;19.27;10.73;;;;;;;;;;5010059;28;20022;-80
2020/12/26 05:56:19;;;;;;;19.15;10.27;;;;;;;;;;5009839;28;20033;-80
2020/12/26 05:58:45;;;;;;;19.15;10.10;;;;;;;;;;5009781;28;20129;-80
2020/12/26 06:01:11;;;;;;;16.98;9.52;;;;;;;;;;5010683;28;20053;-80
2020/12/26 06:03:37;;;;;;;19.55;9.73;;;;;;;;;;5009662;28;20057;-79
2020/12/26 06:06:04;;;;;;;19.85;9.75;;;;;;;;;;5008720;28;20026;-79
2020/12/26 06:08:31;;;;;;;21.30;10.52;;;;;;;;;;5009773;28;20022;-79
2020/12/26 06:11:01;;;;;;;18.40;11.07;;;;;;;;;;5011164;28;20025;-79
2020/12/26 06:13:28;;;;;;;20.88;12.25;;;;;;;;;;5010626;28;20038;-79
2020/12/26 06:15:54;;;;;;;22.15;12.02;;;;;;;;;;5010243;28;20060;-80
2020/12/26 06:18:21;;;;;;;25.90;13.43;;;;;;;;;;5009437;28;20061;-80
2020/12/26 06:20:51;;;;;;;23.52;13.05;;;;;;;;;;5010934;28;20057;-79
2020/12/26 06:23:17;;;;;;;24.23;12.68;;;;;;;;;;5009480;28;20117;-79
2020/12/26 06:25:44;;;;;;;23.27;12.43;;;;;;;;;;5009309;28;20057;-79
2020/12/26 06:28:20;;;;;;;19.17;11.57;;;;;;;;;;5007828;28;20030;-78
2020/12/26 06:30:46;;;;;;;20.17;12.18;;;;;;;;;;5010093;28;20156;-79
2020/12/26 06:33:12;;;;;;;22.90;12.38;;;;;;;;;;5009000;28;20022;-78
2020/12/26 06:35:42;;;;;;;17.65;11.38;;;;;;;;;;5009979;28;20026;-79
2020/12/26 06:38:11;;;;;;;19.50;11.60;;;;;;;;;;5011178;28;20137;-79
2020/12/26 06:40:38;;;;;;;19.70;11.50;;;;;;;;;;5010024;28;20030;-79
2020/12/26 06:43:04;;;;;;;18.37;11.07;;;;;;;;;;5011443;28;20026;-79
2020/12/26 06:45:34;;;;;;;21.15;11.10;;;;;;;;;;5009695;28;20029;-79
2020/12/26 06:48:01;;;;;;;23.23;12.73;;;;;;;;;;5010213;28;20153;-80
2020/12/26 06:50:28;;;;;;;33.25;17.13;;;;;;;;;;5009954;28;20029;-79
2020/12/26 06:52:54;;;;;;;32.35;15.82;;;;;;;;;;5009095;28;20026;-79
2020/12/26 06:55:42;;;;;;;30.60;17.20;;;;;;;;;;5009704;28;20056;-79
2020/12/26 06:58:11;;;;;;;29.08;15.18;;;;;;;;;;5010028;28;20022;-78
2020/12/26 07:00:38;;;;;;;26.45;14.52;;;;;;;;;;5010276;28;20026;-81
2020/12/26 07:03:20;;;;;;;25.60;13.70;;;;;;;;;;5010406;28;20433;-82
2020/12/26 07:05:46;;;;;;;24.60;11.98;;;;;;;;;;5009498;28;20074;-80
2020/12/26 07:08:26;;;;;;;21.52;12.38;;;;;;;;;;5010461;28;20141;-79
2020/12/26 07:10:52;;;;;;;21.27;11.85;;;;;;;;;;5010577;28;20103;-79
2020/12/26 07:13:37;;;;;;;18.63;11.00;;;;;;;;;;5010027;28;20033;-80
2020/12/26 07:16:03;;;;;;;18.27;10.48;;;;;;;;;;5010395;28;20060;-79
2020/12/26 07:18:29;;;;;;;16.88;10.70;;;;;;;;;;5007944;28;20481;-79
2020/12/26 07:20:55;;;;;;;19.05;10.13;;;;;;;;;;4991197;28;20485;-80
2020/12/26 07:23:21;;;;;;;17.60;9.57;;;;;;;;;;4990334;28;20033;-78
2020/12/26 07:25:48;;;;;;;18.67;10.00;;;;;;;;;;4987570;28;20078;-79
2020/12/26 07:28:14;;;;;;;22.90;10.70;;;;;;;;;;4987646;28;20801;-78
2020/12/26 07:30:40;;;;;;;17.20;9.98;;;;;;;;;;4990013;28;20030;-79
2020/12/26 07:33:06;;;;;;;14.75;9.35;;;;;;;;;;4988416;28;20386;-79
2020/12/26 07:35:33;;;;;;;19.45;11.10;;;;;;;;;;4989479;28;20026;-80
2020/12/26 07:38:01;;;;;;;19.88;10.77;;;;;;;;;;4988584;28;20110;-80
2020/12/26 07:40:27;;;;;;;18.70;10.90;;;;;;;;;;5005883;28;20022;-79
2020/12/26 07:42:53;;;;;;;20.40;11.38;;;;;;;;;;5009570;28;20037;-80
2020/12/26 07:45:21;;;;;;;22.20;12.63;;;;;;;;;;5007803;28;20022;-80
2020/12/26 07:47:51;;;;;;;25.35;13.95;;;;;;;;;;5008204;28;20092;-80
2020/12/26 07:50:19;;;;;;;29.80;13.63;;;;;;;;;;5008648;28;20026;-80
2020/12/26 07:52:49;;;;;;;33.33;15.60;;;;;;;;;;5008059;28;20036;-80
2020/12/26 07:55:15;;;;;;;31.38;14.70;;;;;;;;;;5008281;28;20083;-80
2020/12/26 07:57:41;;;;;;;21.35;11.77;;;;;;;;;;5009105;28;20037;-80
2020/12/26 08:00:08;;;;;;;19.35;10.77;;;;;;;;;;5008552;28;20125;-80
2020/12/26 08:02:34;;;;;;;19.13;11.43;;;;;;;;;;5009293;28;20022;-79
2020/12/26 08:05:00;;;;;;;21.70;11.77;;;;;;;;;;4997455;28;20019;-80
2020/12/26 08:07:32;;;;;;;29.33;13.13;;;;;;;;;;4986507;28;20034;-79
2020/12/26 08:09:58;;;;;;;31.02;15.50;;;;;;;;;;4987116;28;20339;-79
2020/12/26 08:12:25;;;;;;;27.08;13.50;;;;;;;;;;4974546;28;20041;-79
2020/12/26 08:15:00;;;;;;;23.13;12.57;;;;;;;;;;4967506;28;20670;-79
2020/12/26 08:17:28;;;;;;;18.83;11.10;;;;;;;;;;4969344;28;20061;-80
2020/12/26 08:19:58;;;;;;;17.17;10.07;;;;;;;;;;4969244;28;20026;-80
2020/12/26 08:22:24;;;;;;;26.65;12.73;;;;;;;;;;4968857;28;20433;-80
2020/12/26 08:24:50;;;;;;;40.53;16.95;;;;;;;;;;4968818;28;20054;-80
2020/12/26 08:27:17;;;;;;;37.35;17.85;;;;;;;;;;4968233;28;20031;-79
2020/12/26 08:29:44;;;;;;;24.67;14.20;;;;;;;;;;4969272;28;20054;-78
2020/12/26 08:32:11;;;;;;;24.40;14.05;;;;;;;;;;4969710;28;20022;-79
2020/12/26 08:34:56;;;;;;;16.30;10.53;;;;;;;;;;4972697;28;20120;-79
2020/12/26 08:37:28;;;;;;;16.02;9.82;;;;;;;;;;4977287;28;20294;-79
2020/12/26 08:39:58;;;;;;;16.65;9.73;;;;;;;;;;4968148;28;20023;-79
2020/12/26 08:42:24;;;;;;;17.13;9.50;;;;;;;;;;4968819;28;20118;-77
2020/12/26 08:44:50;;;;;;;13.53;8.43;;;;;;;;;;4968337;28;20489;-79
2020/12/26 08:47:29;;;;;;;17.55;9.30;;;;;;;;;;4968075;28;20126;-78
2020/12/26 08:49:55;;;;;;;13.65;8.60;;;;;;;;;;4967669;28;20030;-79
2020/12/26 08:52:22;;;;;;;15.38;9.25;;;;;;;;;;4970138;28;20089;-81
2020/12/26 08:55:00;;;;;;;16.98;9.38;;;;;;;;;;4972814;28;20026;-80
2020/12/26 08:57:26;;;;;;;15.07;8.68;;;;;;;;;;4972100;28;20050;-78
2020/12/26 08:59:51;;;;;;;16.23;9.00;;;;;;;;;;4972024;28;20026;-79
2020/12/26 09:02:17;;;;;;;15.23;8.85;;;;;;;;;;4971779;28;20026;-79
2020/12/26 09:04:43;;;;;;;13.93;8.38;;;;;;;;;;4972497;28;20104;-78
2020/12/26 09:07:22;;;;;;;13.38;8.20;;;;;;;;;;4972759;28;20065;-80
2020/12/26 09:09:48;;;;;;;14.35;8.20;;;;;;;;;;4971179;28;20110;-80
2020/12/26 09:12:15;;;;;;;11.63;7.97;;;;;;;;;;4973281;28;20142;-79
2020/12/26 09:14:41;;;;;;;10.98;7.68;;;;;;;;;;4971039;28;20035;-81
2020/12/26 09:17:09;;;;;;;14.48;7.90;;;;;;;;;;4971391;28;20150;-78
2020/12/26 09:19:44;;;;;;;13.25;7.60;;;;;;;;;;4971672;28;20137;-79
2020/12/26 09:22:11;;;;;;;11.63;7.57;;;;;;;;;;4971322;28;20031;-81
2020/12/26 09:24:37;;;;;;;13.43;7.17;;;;;;;;;;4970934;28;20514;-80
2020/12/26 09:27:03;;;;;;;12.15;7.25;;;;;;;;;;4972763;28;20270;-80
2020/12/26 09:29:29;;;;;;;10.15;7.20;;;;;;;;;;4972600;28;20026;-80
2020/12/26 09:31:55;;;;;;;11.18;7.57;;;;;;;;;;4971951;28;20522;-79
2020/12/26 09:34:22;;;;;;;11.75;7.25;;;;;;;;;;4970996;28;20093;-80
2020/12/26 09:36:48;;;;;;;12.93;7.28;;;;;;;;;;4972668;28;20030;-80
2020/12/26 09:39:15;;;;;;;12.90;6.82;;;;;;;;;;4972437;28;20049;-80
2020/12/26 09:41:45;;;;;;;11.55;6.55;;;;;;;;;;4971663;28;20022;-79
2020/12/26 09:44:11;;;;;;;10.95;6.72;;;;;;;;;;4971088;28;20053;-79
2020/12/26 09:46:37;;;;;;;8.80;6.10;;;;;;;;;;4978862;28;20073;-79
2020/12/26 09:49:03;;;;;;;10.45;7.07;;;;;;;;;;4990239;28;20060;-80
2020/12/26 09:51:30;;;;;;;11.90;6.53;;;;;;;;;;4991363;28;20033;-79
2020/12/26 09:53:55;;;;;;;12.23;7.50;;;;;;;;;;4992274;28;20026;-79
2020/12/26 09:56:22;;;;;;;12.85;7.75;;;;;;;;;;4991072;28;20105;-81
2020/12/26 09:58:51;;;;;;;14.00;8.40;;;;;;;;;;4991531;28;20505;-79
2020/12/26 10:01:17;;;;;;;11.70;6.90;;;;;;;;;;4990994;28;20046;-79
2020/12/26 10:03:44;;;;;;;12.38;7.22;;;;;;;;;;4991040;28;20022;-80
2020/12/26 10:06:14;;;;;;;12.20;7.20;;;;;;;;;;4992350;28;20026;-80
2020/12/26 10:08:40;;;;;;;12.55;7.10;;;;;;;;;;4992113;28;20121;-80
2020/12/26 10:11:07;;;;;;;14.95;7.75;;;;;;;;;;4991004;28;20049;-79
2020/12/26 10:13:33;;;;;;;13.32;7.40;;;;;;;;;;4991556;28;20041;-80
2020/12/26 10:15:59;;;;;;;10.93;6.88;;;;;;;;;;4989548;28;20026;-80
2020/12/26 10:18:25;;;;;;;13.65;7.22;;;;;;;;;;4991068;28;20038;-81
2020/12/26 10:20:51;;;;;;;11.82;7.53;;;;;;;;;;4991274;28;20109;-78
2020/12/26 10:23:17;;;;;;;12.80;6.82;;;;;;;;;;4989995;28;20022;-79
2020/12/26 10:25:43;;;;;;;13.90;6.95;;;;;;;;;;4988749;28;20860;-81
2020/12/26 10:28:09;;;;;;;9.80;6.20;;;;;;;;;;4990227;28;20034;-80
2020/12/26 10:30:35;;;;;;;13.55;6.82;;;;;;;;;;4990238;28;20069;-80
2020/12/26 10:33:01;;;;;;;9.15;5.95;;;;;;;;;;4989498;28;20022;-79
2020/12/26 10:35:27;;;;;;;10.30;6.53;;;;;;;;;;4989202;28;20437;-81
2020/12/26 10:37:53;;;;;;;17.05;7.72;;;;;;;;;;4989541;28;20022;-79
2020/12/26 10:40:19;;;;;;;15.50;7.40;;;;;;;;;;4989283;28;20146;-80
2020/12/26 10:42:45;;;;;;;14.23;8.02;;;;;;;;;;4990209;28;20105;-81
2020/12/26 10:45:11;;;;;;;14.05;7.32;;;;;;;;;;4991141;28;20498;-80
2020/12/26 10:47:37;;;;;;;13.93;6.90;;;;;;;;;;4989820;28;20073;-80
2020/12/26 10:50:03;;;;;;;14.35;7.43;;;;;;;;;;4991110;28;20030;-80
2020/12/26 10:52:29;;;;;;;14.20;7.18;;;;;;;;;;4990330;28;20038;-81
2020/12/26 10:54:57;;;;;;;13.07;6.85;;;;;;;;;;4991268;28;20084;-80
2020/12/26 10:57:23;;;;;;;14.00;7.80;;;;;;;;;;4989609;28;20022;-80
2020/12/26 10:59:49;;;;;;;11.75;7.63;;;;;;;;;;4990874;28;20080;-80
2020/12/26 11:02:15;;;;;;;13.70;7.45;;;;;;;;;;4992995;28;20497;-80
2020/12/26 11:04:41;;;;;;;12.20;7.00;;;;;;;;;;4991995;28;20026;-81
2020/12/26 11:07:07;;;;;;;25.33;15.40;;;;;;;;;;4991320;28;20026;-80
2020/12/26 11:09:33;;;;;;;12.63;7.05;;;;;;;;;;4992280;28;20073;-81
2020/12/26 11:11:59;;;;;;;12.52;6.63;;;;;;;;;;4993498;28;20115;-81
2020/12/26 11:14:26;;;;;;;12.55;7.15;;;;;;;;;;4991997;28;20595;-80
2020/12/26 11:16:53;;;;;;;13.18;6.72;;;6.00;99.90;;;;;;4976370;28;20549;-79
2020/12/26 11:19:20;;;;;;;11.68;6.57;;;5.40;99.90;;;;;;4976250;28;20029;-83
2020/12/26 11:21:55;;;;;;;12.80;7.35;;;5.30;99.90;;;;;;4981776;28;20146;-83
2020/12/26 11:24:22;;;;;;;15.80;7.30;;;5.10;99.90;;;;;;4980723;28;20087;-82
2020/12/26 11:26:48;;;;;;;14.82;7.85;;;5.30;99.90;;;;;;4991636;28;20019;-81
2020/12/26 11:29:14;;;;;;;9.73;5.93;;;5.40;99.90;;;;;;4979056;28;20034;-82
2020/12/26 11:31:39;;;;;;;11.70;6.90;;;5.50;99.90;;;;;;4982895;28;20027;-81
2020/12/26 11:34:06;;;;;;;13.02;6.45;;;5.70;99.90;;;;;;4979053;28;20053;-82
2020/12/26 11:36:31;;;;;;;12.50;6.65;;;5.50;99.90;;;;;;4981222;28;20031;-81
2020/12/26 11:38:58;;;;;;;33.65;15.30;;;5.40;99.90;;;;;;4978950;28;20018;-82
2020/12/26 11:41:28;;;;;;;54.60;25.23;;;5.40;99.90;;;;;;4980877;28;20030;-82
2020/12/26 11:43:54;;;;;;;107.65;57.83;;;5.60;99.90;;;;;;4994126;28;20023;-85
2020/12/26 11:46:20;;;;;;;152.30;80.63;;;5.40;99.90;;;;;;4992059;28;20038;-83
2020/12/26 11:48:46;;;;;;;12.57;8.20;;;5.30;99.90;;;;;;4988345;28;20031;-85
2020/12/26 11:51:12;;;;;;;26.75;17.02;;;5.40;99.90;;;;;;4988326;28;20129;-83
2020/12/26 11:53:38;;;;;;;18.73;11.07;;;5.30;99.90;;;;;;4987091;28;20498;-82
2020/12/26 11:56:12;;;;;;;19.58;8.73;;;5.00;99.90;;;;;;4983287;28;20031;-83
2020/12/26 11:58:38;;;;;;;16.00;6.72;;;5.30;99.90;;;;;;4985484;28;20130;-83
2020/12/26 12:01:05;;;;;;;9.45;5.70;;;5.30;99.90;;;;;;4984014;28;20022;-83
2020/12/26 12:03:31;;;;;;;28.30;18.88;;;5.50;99.90;;;;;;4984190;28;20093;-82
2020/12/26 12:05:58;;;;;;;7.32;4.05;;;5.60;99.90;;;;;;4983773;28;20465;-82
2020/12/26 12:08:23;;;;;;;10.32;4.97;;;5.70;99.20;;;;;;4995826;28;20027;-82
2020/12/26 12:10:54;;;;;;;8.63;3.92;;;;;;;;;;4981073;28;20033;-82
2020/12/26 12:13:21;;;;;;;11.35;5.28;;;;;;;;;;4984297;28;20039;-81
2020/12/26 12:15:47;;;;;;;7.28;4.43;;;;;;;;;;4972772;28;20027;-82
2020/12/26 12:18:13;;;;;;;9.20;4.57;;;;;;;;;;4984791;28;20039;-83
2020/12/26 12:20:39;;;;;;;9.68;4.20;;;;;;;;;;4977221;28;20080;-83
2020/12/26 12:23:05;;;;;;;7.75;3.92;;;;;;;;;;4971562;28;20057;-82
2020/12/26 12:25:31;;;;;;;10.68;4.45;;;;;;;;;;4984881;28;20023;-81
2020/12/26 12:27:58;;;;;;;6.63;4.20;;;;;;;;;;4979485;28;20035;-81
2020/12/26 12:30:24;;;;;;;8.38;4.50;;;;;;;;;;4978301;28;20516;-80
2020/12/26 12:32:50;;;;;;;10.68;5.85;;;;;;;;;;4989931;28;20057;-81
2020/12/26 12:35:17;;;;;;;8.95;4.72;;;;;;;;;;4981873;28;20030;-81
2020/12/26 12:37:49;;;;;;;6.18;3.70;;;;;;;;;;4978589;28;20037;-81
2020/12/26 12:40:15;;;;;;;8.50;3.60;;;;;;;;;;4975380;28;20038;-81
2020/12/26 12:42:41;;;;;;;9.35;4.05;;;;;;;;;;4972653;28;20113;-80
2020/12/26 12:45:07;;;;;;;6.80;3.78;;;;;;;;;;4972328;28;20474;-81
2020/12/26 12:47:34;;;;;;;8.77;4.20;;;;;;;;;;4971769;28;20111;-80
2020/12/26 12:50:00;;;;;;;8.15;4.30;;;;;;;;;;4972322;28;20118;-83
2020/12/26 12:52:26;;;;;;;9.57;6.72;;;;;;;;;;4974483;28;20061;-83
2020/12/26 12:54:52;;;;;;;9.13;5.38;;;;;;;;;;4978447;28;20031;-83
2020/12/26 12:57:18;;;;;;;13.90;8.32;;;;;;;;;;4978867;28;20129;-82
2020/12/26 12:59:44;;;;;;;10.93;8.70;;;;;;;;;;4983142;28;20043;-84
2020/12/26 13:02:10;;;;;;;7.35;3.78;;;;;;;;;;4987126;28;20018;-84
2020/12/26 13:04:36;;;;;;;7.30;3.97;;;;;;;;;;4981349;28;20038;-83
2020/12/26 13:07:02;;;;;;;7.32;4.03;;;;;;;;;;4983088;28;20494;-81
2020/12/26 13:09:28;;;;;;;9.73;3.58;;;;;;;;;;4977464;28;20035;-82
2020/12/26 13:11:54;;;;;;;9.13;4.97;;;;;;;;;;4974895;28;20038;-83
2020/12/26 13:14:20;;;;;;;8.38;4.63;;;;;;;;;;5014222;28;20374;-83
2020/12/26 13:16:47;;;;;;;7.57;3.40;;;;;;;;;;5017606;28;20484;-82
2020/12/26 13:19:13;;;;;;;7.57;3.78;;;;;;;;;;5018495;28;20030;-81
2020/12/26 13:21:39;;;;;;;5.40;3.30;;;;;;;;;;5012269;28;20413;-83
2020/12/26 13:24:05;;;;;;;9.27;3.45;;;;;;;;;;5010260;28;20021;-79
2020/12/26 13:26:31;;;;;;;10.43;3.50;;;;;;;;;;5002753;28;20049;-78
2020/12/26 13:28:57;;;;;;;7.65;4.28;;;;;;;;;;4986290;28;20027;-78
2020/12/26 13:31:26;;;;;;;12.57;4.03;;;;;;;;;;4987922;28;20030;-78
2020/12/26 13:33:53;;;;;;;11.43;4.10;;;;;;;;;;4988576;28;20129;-80
2020/12/26 13:36:19;;;;;;;5.78;3.63;;;;;;;;;;4987371;28;20023;-83
2020/12/26 13:38:45;;;;;;;8.98;3.50;;;;;;;;;;4993610;28;20034;-83
2020/12/26 13:41:11;;;;;;;9.02;3.50;;;;;;;;;;4994357;28;20034;-82
2020/12/26 13:43:38;;;;;;;7.38;3.63;;;;;;;;;;4997564;28;20132;-82
2020/12/26 13:46:04;;;;;;;8.95;4.90;;;;;;;;;;4997687;28;20493;-81
2020/12/26 13:48:30;;;;;;;7.68;4.95;;;;;;;;;;5015321;28;20029;-81
2020/12/26 13:50:56;;;;;;;7.82;4.63;;;;;;;;;;5013061;28;20508;-80
2020/12/26 13:53:23;;;;;;;11.13;4.57;;;;;;;;;;5013410;28;20089;-81
2020/12/26 13:55:49;;;;;;;9.95;4.95;;;;;;;;;;5012982;28;20053;-81
2020/12/26 13:58:15;;;;;;;10.18;4.57;;;;;;;;;;5013011;28;20112;-81
2020/12/26 14:00:41;;;;;;;9.00;5.22;;;;;;;;;;5015050;28;20030;-82
2020/12/26 14:03:07;;;;;;;12.18;4.22;;;;;;;;;;4997669;28;20473;-80
2020/12/26 14:05:33;;;;;;;7.72;4.15;;;;;;;;;;4993969;28;20026;-82
2020/12/26 14:07:59;;;;;;;9.48;4.60;;;;;;;;;;4993250;28;20509;-82
2020/12/26 14:10:25;;;;;;;11.13;4.68;;;;;;;;;;4994297;28;20102;-81
2020/12/26 14:12:51;;;;;;;6.22;4.05;;;;;;;;;;4993861;28;20040;-80
2020/12/26 14:15:17;;;;;;;8.50;4.45;;;;;;;;;;4992991;28;20460;-80